Koyo Maru No.12 — JD2089 — position and weather

sailwx.info

Track history (hours):
 
Tides and Currents Weather Stations Pressure Air Temp Water Temp Dewpoint Dewpoint Depression Visibility Wind Speed Wind Dir Waves Ship Positions

Koyo Maru No.12

Last reported at 2017-Dec-16 05:00 UTC. Time now 2017-Dec-16 05:22 UTC.
Position N 35°29' E 139°51'.

Length 65 m; draft 4.5 m.

Type: Tanker. MMSI: 431402014.

Date/timePositionNaut miles runAvg speedWind from/ knotsBaromVisibWave heightAir tempDewpointWater temp
2017-Dec-16 05:00N 35°29' E 139°51'510.7
2017-Dec-16 04:30N 35°30' E 139°58'3 6.4
2017-Dec-16 03:59N 35°30' E 140°02'0 0.0
2017-Dec-16 03:29N 35°30' E 140°02'0 0.0
2017-Dec-16 02:58N 35°30' E 140°02'0 0.0
2017-Dec-16 02:25N 35°30' E 140°02'0 0.0
2017-Dec-16 01:41N 35°30' E 140°02'0 0.0
2017-Dec-16 01:23N 35°30' E 140°02'0 0.0
2017-Dec-16 01:00N 35°30' E 140°02'0 0.0
2017-Dec-16 00:30N 35°30' E 140°02'0 0.0
2017-Dec-16 00:00N 35°30' E 140°02'1 3.0
2017-Dec-15 23:31N 35°30' E 140°00'1 3.0
2017-Dec-15 23:01N 35°32' E 140°01'611.1
2017-Dec-15 22:31N 35°36' E 140°06'0 0.7
2017-Dec-15 22:00N 35°36' E 140°06'0 0.0
2017-Dec-15 21:31N 35°36' E 140°06'0 0.0
2017-Dec-15 21:01N 35°36' E 140°06'0 0.0
2017-Dec-15 20:30N 35°36' E 140°06'0 0.0
2017-Dec-15 20:01N 35°36' E 140°06'0 0.0
2017-Dec-15 19:31N 35°36' E 140°06'0 0.0
2017-Dec-15 19:01N 35°36' E 140°06'0 0.0
2017-Dec-15 18:31N 35°36' E 140°06'0 0.0
2017-Dec-15 18:01N 35°36' E 140°06'0 0.0
2017-Dec-15 17:31N 35°36' E 140°06'0 0.0
2017-Dec-15 17:01N 35°36' E 140°06'0 0.0
2017-Dec-15 16:31N 35°36' E 140°06'0 0.0
2017-Dec-15 16:01N 35°36' E 140°06'0 0.0
2017-Dec-15 15:31N 35°36' E 140°06'0 0.0
2017-Dec-15 15:00N 35°36' E 140°06'0 0.0
2017-Dec-15 14:31N 35°36' E 140°06'0 0.0
2017-Dec-15 14:01N 35°36' E 140°06'0 0.0
2017-Dec-15 13:31N 35°36' E 140°06'0 0.0
2017-Dec-15 13:01N 35°36' E 140°06'0 0.0
2017-Dec-15 12:31N 35°36' E 140°06'0 0.0
2017-Dec-15 12:00N 35°36' E 140°06'0 0.0
2017-Dec-15 11:31N 35°36' E 140°06'0 0.0
2017-Dec-15 11:01N 35°36' E 140°06'0 0.0
2017-Dec-15 10:30N 35°36' E 140°06'0 0.0
2017-Dec-15 10:01N 35°36' E 140°06'0 0.0
2017-Dec-15 09:30N 35°36' E 140°06'0 0.0
2017-Dec-15 09:00N 35°36' E 140°06'0 0.0
2017-Dec-15 08:31N 35°36' E 140°06'0 0.0
2017-Dec-15 08:01N 35°36' E 140°06'0 0.0
2017-Dec-15 07:31N 35°36' E 140°06'0 0.0
2017-Dec-15 07:01N 35°36' E 140°06'0 0.0
2017-Dec-15 06:31N 35°36' E 140°06'0 0.0
2017-Dec-15 06:01N 35°36' E 140°06'0 0.0
2017-Dec-15 05:31N 35°36' E 140°06'0 0.0
2017-Dec-15 05:01N 35°36' E 140°06'0 0.0
2017-Dec-15 04:31N 35°36' E 140°06'2 4.2
2017-Dec-15 04:01N 35°35' E 140°04'9 6.2
2017-Dec-15 02:31N 35°27' E 139°58'10 6.7
2017-Dec-15 01:00N 35°30' E 139°47'2 3.6
2017-Dec-15 00:30N 35°32' E 139°45'1 0.2
2017-Dec-14 18:30N 35°30' E 139°46'0 0.0
2017-Dec-14 18:00N 35°30' E 139°46'0 0.0
2017-Dec-14 17:31N 35°30' E 139°46'0 0.0
2017-Dec-14 17:00N 35°30' E 139°46'0 0.0
2017-Dec-14 16:30N 35°30' E 139°46'0 0.0
2017-Dec-14 16:00N 35°30' E 139°46'0 0.0
2017-Dec-14 14:56N 35°30' E 139°46'0 0.0
2017-Dec-14 14:30N 35°30' E 139°46'0 0.0
2017-Dec-14 13:58N 35°30' E 139°46'0 0.1
2017-Dec-14 13:30N 35°30' E 139°46'0 0.1
2017-Dec-14 12:51N 35°30' E 139°46'0 0.0
2017-Dec-14 12:23N 35°30' E 139°46'0 0.1
2017-Dec-14 11:48N 35°30' E 139°46'0 0.2
2017-Dec-14 11:30N 35°30' E 139°46'0 0.0
2017-Dec-14 10:12N 35°30' E 139°46'0 0.0
2017-Dec-14 10:00N 35°30' E 139°46'0 0.0
2017-Dec-14 09:27N 35°30' E 139°46'0 0.0
2017-Dec-14 08:57N 35°30' E 139°46'0 0.1
2017-Dec-14 08:13N 35°30' E 139°46'0 0.2
2017-Dec-14 08:00N 35°30' E 139°46'0 0.0
2017-Dec-14 07:30N 35°30' E 139°46'0 0.1
2017-Dec-14 06:59N 35°30' E 139°46'0 0.1
2017-Dec-14 06:30N 35°30' E 139°46'0 0.0
2017-Dec-14 05:59N 35°30' E 139°46'3 6.8
2017-Dec-14 05:31N 35°30' E 139°50'4 8.2
2017-Dec-14 05:01N 35°32' E 139°45'0 0.0
2017-Dec-14 04:30N 35°32' E 139°45'0 0.0
2017-Dec-14 04:00N 35°32' E 139°45'0 0.0
2017-Dec-14 03:30N 35°32' E 139°45'0 0.0
2017-Dec-14 03:00N 35°32' E 139°45'0 0.0
2017-Dec-14 02:30N 35°32' E 139°45'0 0.0
2017-Dec-14 02:01N 35°32' E 139°45'0 0.0
2017-Dec-14 01:30N 35°32' E 139°45'0 0.0
2017-Dec-14 01:00N 35°32' E 139°45'0 0.0
2017-Dec-14 00:31N 35°32' E 139°45'0 0.0
2017-Dec-14 00:00N 35°32' E 139°45'0 0.0
2017-Dec-13 23:30N 35°32' E 139°45'2 4.8
2017-Dec-13 23:00N 35°30' E 139°48'2 4.2
2017-Dec-13 22:30N 35°28' E 139°48'0 0.1
2017-Dec-13 22:00N 35°28' E 139°48'0 0.0
2017-Dec-13 21:30N 35°28' E 139°48'0 0.0
2017-Dec-13 21:01N 35°28' E 139°48'0 0.0
2017-Dec-13 20:30N 35°28' E 139°48'0 0.0
2017-Dec-13 20:01N 35°28' E 139°48'0 0.0
2017-Dec-13 19:30N 35°28' E 139°48'0 0.0
2017-Dec-13 19:00N 35°28' E 139°48'0 0.0
2017-Dec-13 18:30N 35°28' E 139°48'0 0.0
2017-Dec-13 18:01N 35°28' E 139°48'0 0.0
2017-Dec-13 17:31N 35°28' E 139°48'0 0.0
2017-Dec-13 17:00N 35°28' E 139°48'0 0.0
2017-Dec-13 16:31N 35°28' E 139°48'0 0.0
2017-Dec-13 16:00N 35°28' E 139°48'0 0.2
2017-Dec-13 15:30N 35°28' E 139°48'5 9.8
2017-Dec-13 15:01N 35°23' E 139°46'510.0
2017-Dec-13 14:30N 35°18' E 139°44'510.2
2017-Dec-13 14:00N 35°14' E 139°47'510.0
2017-Dec-13 13:30N 35°09' E 139°45'5 9.5
2017-Dec-13 13:00N 35°05' E 139°42'5 9.6
2017-Dec-13 12:30N 35°02' E 139°37'510.2
2017-Dec-13 12:00N 34°59' E 139°32'510.8
2017-Dec-13 11:29N 34°56' E 139°27'611.8
2017-Dec-13 11:00N 34°53' E 139°21'712.7
2017-Dec-13 10:28N 34°48' E 139°15'612.7
2017-Dec-13 10:00N 34°44' E 139°10'510.6
2017-Dec-13 09:30N 34°40' E 139°05'511.2
2017-Dec-13 09:01N 34°37' E 138°60'611.2
2017-Dec-13 08:30N 34°35' E 138°53'610.6
2017-Dec-13 07:57N 34°34' E 138°46'510.7
2017-Dec-13 07:27N 34°34' E 138°40'511.2
2017-Dec-13 07:00N 34°33' E 138°34'611.2
2017-Dec-13 06:26N 34°32' E 138°26'611.0
2017-Dec-13 05:54N 34°32' E 138°19'168 9.4
2017-Dec-12 11:57N 33°52' E 135°01'511.4
2017-Dec-12 11:28N 33°56' E 134°56'511.5
2017-Dec-12 11:01N 34°00' E 134°52'611.7
2017-Dec-12 10:31N 34°05' E 134°48'812.1
2017-Dec-12 09:51N 34°11' E 134°42'513.7
2017-Dec-12 09:30N 34°15' E 134°39'611.6
2017-Dec-12 09:00N 34°18' E 134°32'87 2.1
2017-Dec-10 15:20N 34°05' E 132°48'411.5
2017-Dec-10 15:00N 34°01' E 132°46'510.9
2017-Dec-10 14:30N 33°57' E 132°42'510.8
2017-Dec-10 14:00N 33°54' E 132°37'1110.9
2017-Dec-10 12:59N 33°50' E 132°24'510.7
2017-Dec-10 12:30N 33°50' E 132°18'710.7
2017-Dec-10 11:50N 33°48' E 132°10'410.6
2017-Dec-10 11:28N 33°46' E 132°06'4 8.4
2017-Dec-10 11:00N 33°46' E 132°01'510.9
2017-Dec-10 10:30N 33°50' E 131°56'611.2
2017-Dec-10 09:59N 33°54' E 131°51'511.2
2017-Dec-10 09:30N 33°57' E 131°46'4 8.3
2017-Dec-10 08:59N 34°01' E 131°48'1 2.4
2017-Dec-10 08:30N 34°02' E 131°49'0 0.0
2017-Dec-10 08:00N 34°02' E 131°49'0 0.0
2017-Dec-10 07:27N 34°02' E 131°49'0 0.0
2017-Dec-10 07:00N 34°02' E 131°49'0 0.0
2017-Dec-10 06:30N 34°02' E 131°49'0 0.0
2017-Dec-10 06:00N 34°02' E 131°49'0 0.0
2017-Dec-10 05:30N 34°02' E 131°49'0 0.0
2017-Dec-10 05:00N 34°02' E 131°49'0 0.0
2017-Dec-10 04:30N 34°02' E 131°49'0 0.0
2017-Dec-10 04:00N 34°02' E 131°49'0 0.0
2017-Dec-10 03:30N 34°02' E 131°49'0 0.0
2017-Dec-10 03:00N 34°02' E 131°49'0 0.0
2017-Dec-10 02:28N 34°02' E 131°49'1 1.3
2017-Dec-10 02:00N 34°02' E 131°48'0 0.4
2017-Dec-10 01:29N 34°02' E 131°48'0 0.0
2017-Dec-10 01:00N 34°02' E 131°48'0 0.0
2017-Dec-10 00:30N 34°02' E 131°48'1 1.0
2017-Dec-09 23:59N 34°01' E 131°48'511.3
2017-Dec-09 23:30N 33°58' E 131°43'611.7
2017-Dec-09 23:00N 33°57' E 131°36'611.8
2017-Dec-09 22:30N 33°55' E 131°29'612.2
2017-Dec-09 22:00N 33°54' E 131°22'612.4
2017-Dec-09 21:30N 33°52' E 131°15'4 8.2
2017-Dec-09 21:00N 33°56' E 131°14'0 0.0
2017-Dec-09 20:30N 33°56' E 131°14'0 0.0
2017-Dec-09 20:00N 33°56' E 131°14'0 0.0
2017-Dec-09 19:30N 33°56' E 131°14'0 0.0
2017-Dec-09 19:00N 33°56' E 131°14'0 0.0
2017-Dec-09 18:30N 33°56' E 131°14'0 0.0
2017-Dec-09 18:00N 33°56' E 131°14'0 0.0
2017-Dec-09 17:30N 33°56' E 131°14'0 0.0
2017-Dec-09 17:00N 33°56' E 131°14'0 0.0
2017-Dec-09 16:30N 33°56' E 131°14'0 0.0
2017-Dec-09 16:00N 33°56' E 131°14'0 0.0
2017-Dec-09 15:30N 33°56' E 131°14'0 0.0
2017-Dec-09 15:00N 33°56' E 131°14'0 0.0
2017-Dec-09 14:30N 33°56' E 131°14'0 0.0
2017-Dec-09 14:00N 33°56' E 131°14'0 0.0
2017-Dec-09 13:30N 33°56' E 131°14'0 0.0
2017-Dec-09 13:00N 33°56' E 131°14'0 0.0
2017-Dec-09 12:30N 33°56' E 131°14'0 0.0
2017-Dec-09 12:00N 33°56' E 131°14'0 0.0
2017-Dec-09 11:30N 33°56' E 131°14'0 0.0
2017-Dec-09 11:00N 33°56' E 131°14'0 0.0
2017-Dec-09 10:30N 33°56' E 131°14'0 0.0
2017-Dec-09 10:00N 33°56' E 131°14'0 0.0
2017-Dec-09 09:30N 33°56' E 131°14'0 0.0
2017-Dec-09 09:00N 33°56' E 131°14'0 0.0
2017-Dec-09 08:30N 33°56' E 131°14'0 0.0
2017-Dec-09 08:00N 33°56' E 131°14'0 0.0
2017-Dec-09 07:30N 33°56' E 131°14'0 0.0
2017-Dec-09 07:00N 33°56' E 131°14'0 0.0
2017-Dec-09 06:30N 33°56' E 131°14'0 0.0
2017-Dec-09 06:00N 33°56' E 131°14'0 0.0
2017-Dec-09 05:30N 33°56' E 131°14'0 0.0
2017-Dec-09 05:00N 33°56' E 131°14'0 0.0
2017-Dec-09 04:30N 33°56' E 131°14'0 0.0
2017-Dec-09 04:00N 33°56' E 131°14'0 0.0
2017-Dec-09 03:30N 33°56' E 131°14'0 0.0
2017-Dec-09 03:00N 33°56' E 131°14'0 0.0
2017-Dec-09 02:30N 33°56' E 131°14'0 0.0
2017-Dec-09 02:00N 33°56' E 131°14'0 0.0
2017-Dec-09 01:30N 33°56' E 131°14'0 0.0
2017-Dec-09 01:00N 33°56' E 131°14'0 0.0
2017-Dec-09 00:30N 33°56' E 131°14'0 0.0
2017-Dec-09 00:00N 33°56' E 131°14'0 0.0
2017-Dec-08 23:30N 33°56' E 131°14'0 0.0
2017-Dec-08 23:00N 33°56' E 131°14'3 6.0
2017-Dec-08 22:30N 33°54' E 131°11'1 1.8
2017-Dec-08 22:00N 33°54' E 131°10'0 0.1
2017-Dec-08 21:30N 33°54' E 131°10'0 0.0
2017-Dec-08 21:00N 33°54' E 131°10'0 0.0
2017-Dec-08 20:30N 33°54' E 131°10'0 0.0
2017-Dec-08 20:00N 33°54' E 131°10'0 0.0
2017-Dec-08 19:30N 33°54' E 131°10'0 0.0
2017-Dec-08 19:00N 33°54' E 131°10'0 0.0
2017-Dec-08 18:30N 33°54' E 131°10'0 0.0
2017-Dec-08 18:00N 33°54' E 131°10'0 0.0
2017-Dec-08 17:30N 33°54' E 131°10'0 0.0
2017-Dec-08 17:00N 33°54' E 131°10'0 0.1
2017-Dec-08 16:30N 33°54' E 131°10'0 0.0
2017-Dec-08 16:00N 33°54' E 131°10'0 0.1
2017-Dec-08 15:30N 33°54' E 131°10'0 0.0
2017-Dec-08 15:00N 33°54' E 131°10'0 0.1
2017-Dec-08 14:30N 33°54' E 131°10'0 0.0
2017-Dec-08 14:00N 33°54' E 131°10'0 0.1
2017-Dec-08 13:30N 33°54' E 131°10'0 0.0
2017-Dec-08 13:00N 33°54' E 131°10'0 0.0
2017-Dec-08 12:30N 33°54' E 131°10'0 0.0
2017-Dec-08 12:00N 33°54' E 131°10'0 0.0
2017-Dec-08 11:30N 33°54' E 131°10'0 0.0
2017-Dec-08 11:00N 33°54' E 131°10'0 0.0
2017-Dec-08 10:30N 33°54' E 131°10'0 0.1
2017-Dec-08 10:00N 33°54' E 131°10'0 0.0
2017-Dec-08 09:30N 33°54' E 131°10'0 0.0
2017-Dec-08 09:00N 33°54' E 131°10'0 0.0
2017-Dec-08 08:30N 33°54' E 131°10'0 0.1
2017-Dec-08 08:00N 33°54' E 131°10'5 9.8
2017-Dec-08 07:30N 33°57' E 131°05'611.3
2017-Dec-08 07:00N 33°58' E 130°58'5 9.9
2017-Dec-08 06:30N 33°54' E 130°55'5 9.4
2017-Dec-08 06:00N 33°55' E 130°49'4 8.9
2017-Dec-08 05:30N 33°52' E 130°45'0 0.0
2017-Dec-08 05:00N 33°52' E 130°45'0 0.0
2017-Dec-08 04:30N 33°52' E 130°45'0 0.0
2017-Dec-08 04:00N 33°52' E 130°45'0 0.0
2017-Dec-08 03:30N 33°52' E 130°45'0 0.0
2017-Dec-08 03:00N 33°52' E 130°45'0 0.0
2017-Dec-08 02:30N 33°52' E 130°45'0 0.0
2017-Dec-08 02:00N 33°52' E 130°45'0 0.0
2017-Dec-08 01:30N 33°52' E 130°45'0 0.0
2017-Dec-08 01:00N 33°52' E 130°45'0 0.0
2017-Dec-08 00:30N 33°52' E 130°45'1 1.1
2017-Dec-08 00:00N 33°53' E 130°46'510.0
2017-Dec-07 23:30N 33°56' E 130°50'4 7.7
2017-Dec-07 23:00N 33°55' E 130°55'4 7.3
2017-Dec-07 22:30N 33°57' E 130°57'3 5.9
2017-Dec-07 22:00N 33°59' E 131°00'5 9.3
2017-Dec-07 21:30N 33°57' E 131°05'0 0.2
2017-Dec-07 21:00N 33°57' E 131°05'0 0.0
2017-Dec-07 20:30N 33°57' E 131°05'0 0.0
2017-Dec-07 20:00N 33°57' E 131°05'0 0.0
2017-Dec-07 19:30N 33°57' E 131°05'0 0.0
2017-Dec-07 19:00N 33°57' E 131°05'0 0.0
2017-Dec-07 18:30N 33°57' E 131°05'0 0.0
2017-Dec-07 18:00N 33°57' E 131°05'0 0.1
2017-Dec-07 17:30N 33°57' E 131°06'5 9.9
2017-Dec-07 17:00N 33°54' E 131°10'5 9.9
2017-Dec-07 16:30N 33°52' E 131°16'510.1
2017-Dec-07 16:00N 33°51' E 131°22'510.4
2017-Dec-07 15:30N 33°50' E 131°28'510.3
2017-Dec-07 15:00N 33°49' E 131°34'510.7
2017-Dec-07 14:30N 33°48' E 131°41'610.8
2017-Dec-07 13:58N 33°47' E 131°47'511.0
2017-Dec-07 13:30N 33°46' E 131°53'610.9
2017-Dec-07 12:58N 33°46' E 132°00'910.4
2017-Dec-07 12:08N 33°49' E 132°10'310.5
2017-Dec-07 11:48N 33°50' E 132°14'510.5
2017-Dec-07 11:20N 33°50' E 132°20'1010.6
2017-Dec-07 10:23N 33°53' E 132°32'411.3
2017-Dec-07 10:00N 33°55' E 132°36'611.7
2017-Dec-07 09:29N 33°58' E 132°43'8410.6
2017-Dec-07 01:32N 34°22' E 134°20'211.7
2017-Dec-07 01:21N 34°21' E 134°22'411.5
2017-Dec-07 00:59N 34°20' E 134°27'611.4
2017-Dec-07 00:29N 34°17' E 134°33'1211.3
2017-Dec-06 23:24N 34°09' E 134°44'  
Track history (hours):
 
Tides and Currents Weather Stations Pressure Air Temp Water Temp Dewpoint Dewpoint Depression Visibility Wind Speed Wind Dir Waves Ship Positions

Koyo Maru No.12

Last reported at 2017-Dec-16 05:00 UTC. Time now 2017-Dec-16 05:22 UTC.
Position N 35°29' E 139°51'.

Length 65 m; draft 4.5 m.

Type: Tanker. MMSI: 431402014.

Date/timePositionNaut miles runAvg speedWind from/ knotsBaromVisibWave heightAir tempDewpointWater temp
2017-Dec-16 05:00N 35°29' E 139°51'510.7
2017-Dec-16 04:30N 35°30' E 139°58'3 6.4
2017-Dec-16 03:59N 35°30' E 140°02'0 0.0
2017-Dec-16 03:29N 35°30' E 140°02'0 0.0
2017-Dec-16 02:58N 35°30' E 140°02'0 0.0
2017-Dec-16 02:25N 35°30' E 140°02'0 0.0
2017-Dec-16 01:41N 35°30' E 140°02'0 0.0
2017-Dec-16 01:23N 35°30' E 140°02'0 0.0
2017-Dec-16 01:00N 35°30' E 140°02'0 0.0
2017-Dec-16 00:30N 35°30' E 140°02'0 0.0
2017-Dec-16 00:00N 35°30' E 140°02'1 3.0
2017-Dec-15 23:31N 35°30' E 140°00'1 3.0
2017-Dec-15 23:01N 35°32' E 140°01'611.1
2017-Dec-15 22:31N 35°36' E 140°06'0 0.7
2017-Dec-15 22:00N 35°36' E 140°06'0 0.0
2017-Dec-15 21:31N 35°36' E 140°06'0 0.0
2017-Dec-15 21:01N 35°36' E 140°06'0 0.0
2017-Dec-15 20:30N 35°36' E 140°06'0 0.0
2017-Dec-15 20:01N 35°36' E 140°06'0 0.0
2017-Dec-15 19:31N 35°36' E 140°06'0 0.0
2017-Dec-15 19:01N 35°36' E 140°06'0 0.0
2017-Dec-15 18:31N 35°36' E 140°06'0 0.0
2017-Dec-15 18:01N 35°36' E 140°06'0 0.0
2017-Dec-15 17:31N 35°36' E 140°06'0 0.0
2017-Dec-15 17:01N 35°36' E 140°06'0 0.0
2017-Dec-15 16:31N 35°36' E 140°06'0 0.0
2017-Dec-15 16:01N 35°36' E 140°06'0 0.0
2017-Dec-15 15:31N 35°36' E 140°06'0 0.0
2017-Dec-15 15:00N 35°36' E 140°06'0 0.0
2017-Dec-15 14:31N 35°36' E 140°06'0 0.0
2017-Dec-15 14:01N 35°36' E 140°06'0 0.0
2017-Dec-15 13:31N 35°36' E 140°06'0 0.0
2017-Dec-15 13:01N 35°36' E 140°06'0 0.0
2017-Dec-15 12:31N 35°36' E 140°06'0 0.0
2017-Dec-15 12:00N 35°36' E 140°06'0 0.0
2017-Dec-15 11:31N 35°36' E 140°06'0 0.0
2017-Dec-15 11:01N 35°36' E 140°06'0 0.0
2017-Dec-15 10:30N 35°36' E 140°06'0 0.0
2017-Dec-15 10:01N 35°36' E 140°06'0 0.0
2017-Dec-15 09:30N 35°36' E 140°06'0 0.0
2017-Dec-15 09:00N 35°36' E 140°06'0 0.0
2017-Dec-15 08:31N 35°36' E 140°06'0 0.0
2017-Dec-15 08:01N 35°36' E 140°06'0 0.0
2017-Dec-15 07:31N 35°36' E 140°06'0 0.0
2017-Dec-15 07:01N 35°36' E 140°06'0 0.0
2017-Dec-15 06:31N 35°36' E 140°06'0 0.0
2017-Dec-15 06:01N 35°36' E 140°06'0 0.0
2017-Dec-15 05:31N 35°36' E 140°06'0 0.0
2017-Dec-15 05:01N 35°36' E 140°06'0 0.0
2017-Dec-15 04:31N 35°36' E 140°06'2 4.2
2017-Dec-15 04:01N 35°35' E 140°04'9 6.2
2017-Dec-15 02:31N 35°27' E 139°58'10 6.7
2017-Dec-15 01:00N 35°30' E 139°47'2 3.6
2017-Dec-15 00:30N 35°32' E 139°45'1 0.2
2017-Dec-14 18:30N 35°30' E 139°46'0 0.0
2017-Dec-14 18:00N 35°30' E 139°46'0 0.0
2017-Dec-14 17:31N 35°30' E 139°46'0 0.0
2017-Dec-14 17:00N 35°30' E 139°46'0 0.0
2017-Dec-14 16:30N 35°30' E 139°46'0 0.0
2017-Dec-14 16:00N 35°30' E 139°46'0 0.0
2017-Dec-14 14:56N 35°30' E 139°46'0 0.0
2017-Dec-14 14:30N 35°30' E 139°46'0 0.0
2017-Dec-14 13:58N 35°30' E 139°46'0 0.1
2017-Dec-14 13:30N 35°30' E 139°46'0 0.1
2017-Dec-14 12:51N 35°30' E 139°46'0 0.0
2017-Dec-14 12:23N 35°30' E 139°46'0 0.1
2017-Dec-14 11:48N 35°30' E 139°46'0 0.2
2017-Dec-14 11:30N 35°30' E 139°46'0 0.0
2017-Dec-14 10:12N 35°30' E 139°46'0 0.0
2017-Dec-14 10:00N 35°30' E 139°46'0 0.0
2017-Dec-14 09:27N 35°30' E 139°46'0 0.0
2017-Dec-14 08:57N 35°30' E 139°46'0 0.1
2017-Dec-14 08:13N 35°30' E 139°46'0 0.2
2017-Dec-14 08:00N 35°30' E 139°46'0 0.0
2017-Dec-14 07:30N 35°30' E 139°46'0 0.1
2017-Dec-14 06:59N 35°30' E 139°46'0 0.1
2017-Dec-14 06:30N 35°30' E 139°46'0 0.0
2017-Dec-14 05:59N 35°30' E 139°46'3 6.8
2017-Dec-14 05:31N 35°30' E 139°50'4 8.2
2017-Dec-14 05:01N 35°32' E 139°45'0 0.0
2017-Dec-14 04:30N 35°32' E 139°45'0 0.0
2017-Dec-14 04:00N 35°32' E 139°45'0 0.0
2017-Dec-14 03:30N 35°32' E 139°45'0 0.0
2017-Dec-14 03:00N 35°32' E 139°45'0 0.0
2017-Dec-14 02:30N 35°32' E 139°45'0 0.0
2017-Dec-14 02:01N 35°32' E 139°45'0 0.0
2017-Dec-14 01:30N 35°32' E 139°45'0 0.0
2017-Dec-14 01:00N 35°32' E 139°45'0 0.0
2017-Dec-14 00:31N 35°32' E 139°45'0 0.0
2017-Dec-14 00:00N 35°32' E 139°45'0 0.0
2017-Dec-13 23:30N 35°32' E 139°45'2 4.8
2017-Dec-13 23:00N 35°30' E 139°48'2 4.2
2017-Dec-13 22:30N 35°28' E 139°48'0 0.1
2017-Dec-13 22:00N 35°28' E 139°48'0 0.0
2017-Dec-13 21:30N 35°28' E 139°48'0 0.0
2017-Dec-13 21:01N 35°28' E 139°48'0 0.0
2017-Dec-13 20:30N 35°28' E 139°48'0 0.0
2017-Dec-13 20:01N 35°28' E 139°48'0 0.0
2017-Dec-13 19:30N 35°28' E 139°48'0 0.0
2017-Dec-13 19:00N 35°28' E 139°48'0 0.0
2017-Dec-13 18:30N 35°28' E 139°48'0 0.0
2017-Dec-13 18:01N 35°28' E 139°48'0 0.0
2017-Dec-13 17:31N 35°28' E 139°48'0 0.0
2017-Dec-13 17:00N 35°28' E 139°48'0 0.0
2017-Dec-13 16:31N 35°28' E 139°48'0 0.0
2017-Dec-13 16:00N 35°28' E 139°48'0 0.2
2017-Dec-13 15:30N 35°28' E 139°48'5 9.8
2017-Dec-13 15:01N 35°23' E 139°46'510.0
2017-Dec-13 14:30N 35°18' E 139°44'510.2
2017-Dec-13 14:00N 35°14' E 139°47'510.0
2017-Dec-13 13:30N 35°09' E 139°45'5 9.5
2017-Dec-13 13:00N 35°05' E 139°42'5 9.6
2017-Dec-13 12:30N 35°02' E 139°37'510.2
2017-Dec-13 12:00N 34°59' E 139°32'510.8
2017-Dec-13 11:29N 34°56' E 139°27'611.8
2017-Dec-13 11:00N 34°53' E 139°21'712.7
2017-Dec-13 10:28N 34°48' E 139°15'612.7
2017-Dec-13 10:00N 34°44' E 139°10'510.6
2017-Dec-13 09:30N 34°40' E 139°05'511.2
2017-Dec-13 09:01N 34°37' E 138°60'611.2
2017-Dec-13 08:30N 34°35' E 138°53'610.6
2017-Dec-13 07:57N 34°34' E 138°46'510.7
2017-Dec-13 07:27N 34°34' E 138°40'511.2
2017-Dec-13 07:00N 34°33' E 138°34'611.2
2017-Dec-13 06:26N 34°32' E 138°26'611.0
2017-Dec-13 05:54N 34°32' E 138°19'168 9.4
2017-Dec-12 11:57N 33°52' E 135°01'511.4
2017-Dec-12 11:28N 33°56' E 134°56'511.5
2017-Dec-12 11:01N 34°00' E 134°52'611.7
2017-Dec-12 10:31N 34°05' E 134°48'812.1
2017-Dec-12 09:51N 34°11' E 134°42'513.7
2017-Dec-12 09:30N 34°15' E 134°39'611.6
2017-Dec-12 09:00N 34°18' E 134°32'87 2.1
2017-Dec-10 15:20N 34°05' E 132°48'411.5
2017-Dec-10 15:00N 34°01' E 132°46'510.9
2017-Dec-10 14:30N 33°57' E 132°42'510.8
2017-Dec-10 14:00N 33°54' E 132°37'1110.9
2017-Dec-10 12:59N 33°50' E 132°24'510.7
2017-Dec-10 12:30N 33°50' E 132°18'710.7
2017-Dec-10 11:50N 33°48' E 132°10'410.6
2017-Dec-10 11:28N 33°46' E 132°06'4 8.4
2017-Dec-10 11:00N 33°46' E 132°01'510.9
2017-Dec-10 10:30N 33°50' E 131°56'611.2
2017-Dec-10 09:59N 33°54' E 131°51'511.2
2017-Dec-10 09:30N 33°57' E 131°46'4 8.3
2017-Dec-10 08:59N 34°01' E 131°48'1 2.4
2017-Dec-10 08:30N 34°02' E 131°49'0 0.0
2017-Dec-10 08:00N 34°02' E 131°49'0 0.0
2017-Dec-10 07:27N 34°02' E 131°49'0 0.0
2017-Dec-10 07:00N 34°02' E 131°49'0 0.0
2017-Dec-10 06:30N 34°02' E 131°49'0 0.0
2017-Dec-10 06:00N 34°02' E 131°49'0 0.0
2017-Dec-10 05:30N 34°02' E 131°49'0 0.0
2017-Dec-10 05:00N 34°02' E 131°49'0 0.0
2017-Dec-10 04:30N 34°02' E 131°49'0 0.0
2017-Dec-10 04:00N 34°02' E 131°49'0 0.0
2017-Dec-10 03:30N 34°02' E 131°49'0 0.0
2017-Dec-10 03:00N 34°02' E 131°49'0 0.0
2017-Dec-10 02:28N 34°02' E 131°49'1 1.3
2017-Dec-10 02:00N 34°02' E 131°48'0 0.4
2017-Dec-10 01:29N 34°02' E 131°48'0 0.0
2017-Dec-10 01:00N 34°02' E 131°48'0 0.0
2017-Dec-10 00:30N 34°02' E 131°48'1 1.0
2017-Dec-09 23:59N 34°01' E 131°48'511.3
2017-Dec-09 23:30N 33°58' E 131°43'611.7
2017-Dec-09 23:00N 33°57' E 131°36'611.8
2017-Dec-09 22:30N 33°55' E 131°29'612.2
2017-Dec-09 22:00N 33°54' E 131°22'612.4
2017-Dec-09 21:30N 33°52' E 131°15'4 8.2
2017-Dec-09 21:00N 33°56' E 131°14'0 0.0
2017-Dec-09 20:30N 33°56' E 131°14'0 0.0
2017-Dec-09 20:00N 33°56' E 131°14'0 0.0
2017-Dec-09 19:30N 33°56' E 131°14'0 0.0
2017-Dec-09 19:00N 33°56' E 131°14'0 0.0
2017-Dec-09 18:30N 33°56' E 131°14'0 0.0
2017-Dec-09 18:00N 33°56' E 131°14'0 0.0
2017-Dec-09 17:30N 33°56' E 131°14'0 0.0
2017-Dec-09 17:00N 33°56' E 131°14'0 0.0
2017-Dec-09 16:30N 33°56' E 131°14'0 0.0
2017-Dec-09 16:00N 33°56' E 131°14'0 0.0
2017-Dec-09 15:30N 33°56' E 131°14'0 0.0
2017-Dec-09 15:00N 33°56' E 131°14'0 0.0
2017-Dec-09 14:30N 33°56' E 131°14'0 0.0
2017-Dec-09 14:00N 33°56' E 131°14'0 0.0
2017-Dec-09 13:30N 33°56' E 131°14'0 0.0
2017-Dec-09 13:00N 33°56' E 131°14'0 0.0
2017-Dec-09 12:30N 33°56' E 131°14'0 0.0
2017-Dec-09 12:00N 33°56' E 131°14'0 0.0
2017-Dec-09 11:30N 33°56' E 131°14'0 0.0
2017-Dec-09 11:00N 33°56' E 131°14'0 0.0
2017-Dec-09 10:30N 33°56' E 131°14'0 0.0
2017-Dec-09 10:00N 33°56' E 131°14'0 0.0
2017-Dec-09 09:30N 33°56' E 131°14'0 0.0
2017-Dec-09 09:00N 33°56' E 131°14'0 0.0
2017-Dec-09 08:30N 33°56' E 131°14'0 0.0
2017-Dec-09 08:00N 33°56' E 131°14'0 0.0
2017-Dec-09 07:30N 33°56' E 131°14'0 0.0
2017-Dec-09 07:00N 33°56' E 131°14'0 0.0
2017-Dec-09 06:30N 33°56' E 131°14'0 0.0
2017-Dec-09 06:00N 33°56' E 131°14'0 0.0
2017-Dec-09 05:30N 33°56' E 131°14'0 0.0
2017-Dec-09 05:00N 33°56' E 131°14'0 0.0
2017-Dec-09 04:30N 33°56' E 131°14'0 0.0
2017-Dec-09 04:00N 33°56' E 131°14'0 0.0
2017-Dec-09 03:30N 33°56' E 131°14'0 0.0
2017-Dec-09 03:00N 33°56' E 131°14'0 0.0
2017-Dec-09 02:30N 33°56' E 131°14'0 0.0
2017-Dec-09 02:00N 33°56' E 131°14'0 0.0
2017-Dec-09 01:30N 33°56' E 131°14'0 0.0
2017-Dec-09 01:00N 33°56' E 131°14'0 0.0
2017-Dec-09 00:30N 33°56' E 131°14'0 0.0
2017-Dec-09 00:00N 33°56' E 131°14'0 0.0
2017-Dec-08 23:30N 33°56' E 131°14'0 0.0
2017-Dec-08 23:00N 33°56' E 131°14'3 6.0
2017-Dec-08 22:30N 33°54' E 131°11'1 1.8
2017-Dec-08 22:00N 33°54' E 131°10'0 0.1
2017-Dec-08 21:30N 33°54' E 131°10'0 0.0
2017-Dec-08 21:00N 33°54' E 131°10'0 0.0
2017-Dec-08 20:30N 33°54' E 131°10'0 0.0
2017-Dec-08 20:00N 33°54' E 131°10'0 0.0
2017-Dec-08 19:30N 33°54' E 131°10'0 0.0
2017-Dec-08 19:00N 33°54' E 131°10'0 0.0
2017-Dec-08 18:30N 33°54' E 131°10'0 0.0
2017-Dec-08 18:00N 33°54' E 131°10'0 0.0
2017-Dec-08 17:30N 33°54' E 131°10'0 0.0
2017-Dec-08 17:00N 33°54' E 131°10'0 0.1
2017-Dec-08 16:30N 33°54' E 131°10'0 0.0
2017-Dec-08 16:00N 33°54' E 131°10'0 0.1
2017-Dec-08 15:30N 33°54' E 131°10'0 0.0
2017-Dec-08 15:00N 33°54' E 131°10'0 0.1
2017-Dec-08 14:30N 33°54' E 131°10'0 0.0
2017-Dec-08 14:00N 33°54' E 131°10'0 0.1
2017-Dec-08 13:30N 33°54' E 131°10'0 0.0
2017-Dec-08 13:00N 33°54' E 131°10'0 0.0
2017-Dec-08 12:30N 33°54' E 131°10'0 0.0
2017-Dec-08 12:00N 33°54' E 131°10'0 0.0
2017-Dec-08 11:30N 33°54' E 131°10'0 0.0
2017-Dec-08 11:00N 33°54' E 131°10'0 0.0
2017-Dec-08 10:30N 33°54' E 131°10'0 0.1
2017-Dec-08 10:00N 33°54' E 131°10'0 0.0
2017-Dec-08 09:30N 33°54' E 131°10'0 0.0
2017-Dec-08 09:00N 33°54' E 131°10'0 0.0
2017-Dec-08 08:30N 33°54' E 131°10'0 0.1
2017-Dec-08 08:00N 33°54' E 131°10'5 9.8
2017-Dec-08 07:30N 33°57' E 131°05'611.3
2017-Dec-08 07:00N 33°58' E 130°58'5 9.9
2017-Dec-08 06:30N 33°54' E 130°55'5 9.4
2017-Dec-08 06:00N 33°55' E 130°49'4 8.9
2017-Dec-08 05:30N 33°52' E 130°45'0 0.0
2017-Dec-08 05:00N 33°52' E 130°45'0 0.0
2017-Dec-08 04:30N 33°52' E 130°45'0 0.0
2017-Dec-08 04:00N 33°52' E 130°45'0 0.0
2017-Dec-08 03:30N 33°52' E 130°45'0 0.0
2017-Dec-08 03:00N 33°52' E 130°45'0 0.0
2017-Dec-08 02:30N 33°52' E 130°45'0 0.0
2017-Dec-08 02:00N 33°52' E 130°45'0 0.0
2017-Dec-08 01:30N 33°52' E 130°45'0 0.0
2017-Dec-08 01:00N 33°52' E 130°45'0 0.0
2017-Dec-08 00:30N 33°52' E 130°45'1 1.1
2017-Dec-08 00:00N 33°53' E 130°46'510.0
2017-Dec-07 23:30N 33°56' E 130°50'4 7.7
2017-Dec-07 23:00N 33°55' E 130°55'4 7.3
2017-Dec-07 22:30N 33°57' E 130°57'3 5.9
2017-Dec-07 22:00N 33°59' E 131°00'5 9.3
2017-Dec-07 21:30N 33°57' E 131°05'0 0.2
2017-Dec-07 21:00N 33°57' E 131°05'0 0.0
2017-Dec-07 20:30N 33°57' E 131°05'0 0.0
2017-Dec-07 20:00N 33°57' E 131°05'0 0.0
2017-Dec-07 19:30N 33°57' E 131°05'0 0.0
2017-Dec-07 19:00N 33°57' E 131°05'0 0.0
2017-Dec-07 18:30N 33°57' E 131°05'0 0.0
2017-Dec-07 18:00N 33°57' E 131°05'0 0.1
2017-Dec-07 17:30N 33°57' E 131°06'5 9.9
2017-Dec-07 17:00N 33°54' E 131°10'5 9.9
2017-Dec-07 16:30N 33°52' E 131°16'510.1
2017-Dec-07 16:00N 33°51' E 131°22'510.4
2017-Dec-07 15:30N 33°50' E 131°28'510.3
2017-Dec-07 15:00N 33°49' E 131°34'510.7
2017-Dec-07 14:30N 33°48' E 131°41'610.8
2017-Dec-07 13:58N 33°47' E 131°47'511.0
2017-Dec-07 13:30N 33°46' E 131°53'610.9
2017-Dec-07 12:58N 33°46' E 132°00'910.4
2017-Dec-07 12:08N 33°49' E 132°10'310.5
2017-Dec-07 11:48N 33°50' E 132°14'510.5
2017-Dec-07 11:20N 33°50' E 132°20'1010.6
2017-Dec-07 10:23N 33°53' E 132°32'411.3
2017-Dec-07 10:00N 33°55' E 132°36'611.7
2017-Dec-07 09:29N 33°58' E 132°43'8410.6
2017-Dec-07 01:32N 34°22' E 134°20'211.7
2017-Dec-07 01:21N 34°21' E 134°22'411.5
2017-Dec-07 00:59N 34°20' E 134°27'611.4
2017-Dec-07 00:29N 34°17' E 134°33'1211.3
2017-Dec-06 23:24N 34°09' E 134°44'  

Dump ship's entire track history